Latest Weather Observations for Inner Beacon

IDQ60801

Issued at 3:52 pm EST Thursday 28 January 2021 (issued every 10 minutes, with the page automatically refreshed every 10 minutes)

About weather observations | Map of weather stations | Latest weather observations for QLD | Other Formats
Station Details ID: 040926 Name: INNER RECIPROCAL MARKER Lat: -27.26 Lon: 153.24 Height: 10.0 m
Data from the previous 72 hours. | See also: Recent months at Inner Beacon
Date/Time
EST
Temp
°C
App
Temp
°C
Dew
Point
°C
Rel
Hum
%
Delta-T
°C
Wind Press
QNH
hPa
Press
MSL
hPa
Rain since
9am
mm
Dir  Spd
km/h
Gust
km/h
Spd
kts
Gust
kts
28/03:30pm - - - - - ESE 32 39 17 21 - - -
28/03:00pm - - - - - ESE 35 41 19 22 - - -
28/02:30pm - - - - - ESE 33 43 18 23 - - -
28/02:00pm - - - - - SE 32 41 17 22 - - -
28/01:30pm - - - - - SE 32 39 17 21 - - -
28/01:00pm - - - - - SE 28 35 15 19 - - -
28/12:30pm - - - - - ESE 30 35 16 19 - - -
28/12:00pm - - - - - ESE 30 37 16 20 - - -
28/11:30am - - - - - ESE 30 37 16 20 - - -
28/11:00am - - - - - ESE 28 35 15 19 - - -
28/10:30am - - - - - ESE 30 37 16 20 - - -
28/10:00am - - - - - E 20 33 11 18 - - -
28/09:30am - - - - - ESE 28 35 15 19 - - -
28/09:00am - - - - - ESE 26 32 14 17 - - -
28/08:30am - - - - - ESE 26 32 14 17 - - -
28/08:00am - - - - - SE 28 35 15 19 - - -
28/07:30am - - - - - ESE 37 48 20 26 - - -
28/07:10am - - - - - ESE 28 48 15 26 - - -
28/07:00am - - - - - ESE 22 28 12 15 - - -
28/06:30am - - - - - ESE 22 28 12 15 - - -
28/06:00am - - - - - ESE 22 30 12 16 - - -
28/05:30am - - - - - E 22 32 12 17 - - -
28/05:00am - - - - - E 20 32 11 17 - - -
28/04:30am - - - - - E 24 39 13 21 - - -
28/04:00am - - - - - E 17 24 9 13 - - -
28/03:30am - - - - - ESE 20 26 11 14 - - -
28/03:00am - - - - - ESE 19 22 10 12 - - -
28/02:30am - - - - - ESE 20 26 11 14 - - -
28/02:00am - - - - - ESE 22 28 12 15 - - -
28/01:30am - - - - - ESE 20 24 11 13 - - -
28/01:00am - - - - - ESE 19 24 10 13 - - -
28/12:30am - - - - - E 15 20 8 11 - - -
28/12:00am - - - - - E 15 20 8 11 - - -
 
Date/Time
EST
Temp
°C
App
Temp
°C
Dew
Point
°C
Rel
Hum
%
Delta-T
°C
Wind Press
QNH
hPa
Press
MSL
hPa
Rain since
9am
mm
Dir  Spd
km/h
Gust
km/h
Spd
kts
Gust
kts
27/11:30pm - - - - - E 15 19 8 10 - - -
27/11:00pm - - - - - E 15 20 8 11 - - -
27/10:30pm - - - - - E 19 24 10 13 - - -
27/10:00pm - - - - - E 17 20 9 11 - - -
27/09:30pm - - - - - E 17 20 9 11 - - -
27/09:00pm - - - - - E 17 20 9 11 - - -
27/08:30pm - - - - - E 17 20 9 11 - - -
27/08:00pm - - - - - E 15 20 8 11 - - -
27/07:30pm - - - - - E 17 20 9 11 - - -
27/07:00pm - - - - - E 19 24 10 13 - - -
27/06:30pm - - - - - ENE 19 24 10 13 - - -
27/06:00pm - - - - - E 15 19 8 10 - - -
27/05:30pm - - - - - E 17 20 9 11 - - -
27/05:00pm - - - - - ENE 19 22 10 12 - - -
27/04:30pm - - - - - ENE 20 24 11 13 - - -
27/04:00pm - - - - - NNE 19 22 10 12 - - -
27/03:30pm - - - - - NNE 15 17 8 9 - - -
27/03:00pm - - - - - NNE 11 15 6 8 - - -
27/02:30pm - - - - - NNE 11 13 6 7 - - -
27/02:00pm - - - - - NNE 11 15 6 8 - - -
27/01:30pm - - - - - NNE 11 15 6 8 - - -
27/01:00pm - - - - - CALM 0 2 0 1 - - -
27/12:30pm - - - - - CALM 0 0 0 0 - - -
27/12:00pm - - - - - ESE 2 6 1 3 - - -
27/11:30am - - - - - SE 9 13 5 7 - - -
27/11:00am - - - - - SE 6 7 3 4 - - -
27/10:30am - - - - - SE 6 7 3 4 - - -
27/10:00am - - - - - SSE 4 6 2 3 - - -
27/09:30am - - - - - S 6 6 3 3 - - -
27/09:00am - - - - - SSW 6 7 3 4 - - -
27/08:30am - - - - - SSE 6 9 3 5 - - -
27/08:00am - - - - - SSW 7 9 4 5 - - -
27/07:30am - - - - - SSW 9 11 5 6 - - -
27/07:00am - - - - - SSW 11 13 6 7 - - -
27/06:30am - - - - - WSW 9 11 5 6 - - -
27/06:00am - - - - - SW 6 7 3 4 - - -
27/05:30am - - - - - SW 7 9 4 5 - - -
27/05:00am - - - - - SW 9 11 5 6 - - -
27/04:30am - - - - - SW 6 7 3 4 - - -
27/04:00am - - - - - WSW 7 9 4 5 - - -
27/03:30am - - - - - W 7 11 4 6 - - -
27/03:00am - - - - - SW 9 9 5 5 - - -
27/02:30am - - - - - SW 6 7 3 4 - - -
27/02:00am - - - - - WSW 2 6 1 3 - - -
27/01:30am - - - - - N 13 17 7 9 - - -
27/01:00am - - - - - N 17 20 9 11 - - -
27/12:30am - - - - - NNE 19 22 10 12 - - -
27/12:00am - - - - - NNE 19 22 10 12 - - -
 
Date/Time
EST
Temp
°C
App
Temp
°C
Dew
Point
°C
Rel
Hum
%
Delta-T
°C
Wind Press
QNH
hPa
Press
MSL
hPa
Rain since
9am
mm
Dir  Spd
km/h
Gust
km/h
Spd
kts
Gust
kts
26/11:30pm - - - - - NNE 19 22 10 12 - - -
26/11:00pm - - - - - N 17 22 9 12 - - -
26/10:30pm - - - - - NNE 15 17 8 9 - - -
26/10:00pm - - - - - NE 17 20 9 11 - - -
26/09:30pm - - - - - ENE 19 22 10 12 - - -
26/09:00pm - - - - - NE 19 22 10 12 - - -
26/08:30pm - - - - - ENE 20 24 11 13 - - -
26/08:00pm - - - - - ENE 19 22 10 12 - - -
26/07:30pm - - - - - ENE 20 26 11 14 - - -
26/07:00pm - - - - - ENE 22 28 12 15 - - -
26/06:30pm - - - - - ENE 20 26 11 14 - - -
26/06:00pm - - - - - E 20 24 11 13 - - -
26/05:30pm - - - - - ENE 20 24 11 13 - - -
26/05:00pm - - - - - ENE 19 22 10 12 - - -
26/04:30pm - - - - - ENE 9 11 5 6 - - -
26/04:00pm - - - - - ENE 9 11 5 6 - - -
26/03:30pm - - - - - NE 9 13 5 7 - - -
26/03:00pm - - - - - NE 9 13 5 7 - - -
26/02:30pm - - - - - NE 7 11 4 6 - - -
26/02:00pm - - - - - NNE 6 11 3 6 - - -
26/01:30pm - - - - - NE 7 11 4 6 - - -
26/01:00pm - - - - - E 9 13 5 7 - - -
26/12:30pm - - - - - SE 6 9 3 5 - - -
26/12:00pm - - - - - CALM 0 0 0 0 - - -
26/11:30am - - - - - CALM 0 4 0 2 - - -
26/11:00am - - - - - SE 2 6 1 3 - - -
26/10:30am - - - - - S 2 6 1 3 - - -
26/10:00am - - - - - SSW 4 6 2 3 - - -
26/09:30am - - - - - S 7 9 4 5 - - -
26/09:00am - - - - - SSW 9 13 5 7 - - -
26/08:30am - - - - - S 11 13 6 7 - - -
26/08:00am - - - - - SSW 11 13 6 7 - - -
26/07:30am - - - - - S 11 13 6 7 - - -
26/07:00am - - - - - SSW 13 15 7 8 - - -
26/06:30am - - - - - S 11 13 6 7 - - -
26/06:00am - - - - - S 13 17 7 9 - - -
26/05:30am - - - - - SSW 13 15 7 8 - - -
26/05:00am - - - - - SW 13 15 7 8 - - -
26/04:30am - - - - - SW 13 15 7 8 - - -
26/04:00am - - - - - CALM 0 0 0 0 - - -
26/03:30am - - - - - CALM 0 0 0 0 - - -
26/03:00am - - - - - N 2 6 1 3 - - -
26/02:30am - - - - - NE 6 9 3 5 - - -
26/02:00am - - - - - NE 6 7 3 4 - - -
26/01:30am - - - - - CALM 0 0 0 0 - - -
26/01:00am - - - - - NNE 4 9 2 5 - - -
26/12:30am - - - - - NE 7 11 4 6 - - -
26/12:00am - - - - - NE 9 13 5 7 - - -
 
Date/Time
EST
Temp
°C
App
Temp
°C
Dew
Point
°C
Rel
Hum
%
Delta-T
°C
Wind Press
QNH
hPa
Press
MSL
hPa
Rain since
9am
mm
Dir  Spd
km/h
Gust
km/h
Spd
kts
Gust
kts
25/11:30pm - - - - - NE 11 13 6 7 - - -
25/11:00pm - - - - - ENE 15 19 8 10 - - -
25/10:30pm - - - - - NE 15 19 8 10 - - -
25/10:00pm - - - - - NE 15 19 8 10 - - -
25/09:30pm - - - - - NE 19 22 10 12 - - -
25/09:00pm - - - - - ENE 17 22 9 12 - - -
25/08:30pm - - - - - ENE 15 19 8 10 - - -
25/08:00pm - - - - - ENE 11 15 6 8 - - -
25/07:30pm - - - - - NE 17 20 9 11 - - -
25/07:00pm - - - - - NE 19 22 10 12 - - -
25/06:30pm - - - - - ENE 20 22 11 12 - - -
25/06:00pm - - - - - ENE 20 24 11 13 - - -
25/05:30pm - - - - - ENE 20 24 11 13 - - -
25/05:00pm - - - - - ENE 20 24 11 13 - - -
25/04:30pm - - - - - ENE 19 22 10 12 - - -
25/04:00pm - - - - - NE 17 28 9 15 - - -

Other formats

Comma delimited format used in spreadsheet applications
http://www.bom.gov.au/fwo/IDQ60801/IDQ60801.94590.axf

JavaScript Object Notation format (JSON) in row-major order
http://www.bom.gov.au/fwo/IDQ60801/IDQ60801.94590.json

Data quality

Most of these data are generated automatically and are frequently updated. Quality checks on data are not normally performed. It is possible for incorrect values to appear. Refer to information at About Latest Weather Observations and please check the disclaimer before using these data.